sensor_id;sensor_type;location;lat;lon;timestamp;P1;durP1;ratioP1;P2;durP2;ratioP2
62832;SDS011;48891;49.220;6.920;2024-03-08T00:02:08;30.35;;;22.50;;
62832;SDS011;48891;49.220;6.920;2024-03-08T00:04:33;30.88;;;22.95;;
62832;SDS011;48891;49.220;6.920;2024-03-08T00:06:59;33.70;;;23.90;;
62832;SDS011;48891;49.220;6.920;2024-03-08T00:09:24;34.35;;;23.08;;
62832;SDS011;48891;49.220;6.920;2024-03-08T00:11:49;32.83;;;23.17;;
62832;SDS011;48891;49.220;6.920;2024-03-08T00:14:14;36.20;;;23.88;;
62832;SDS011;48891;49.220;6.920;2024-03-08T00:16:40;32.63;;;23.15;;
62832;SDS011;48891;49.220;6.920;2024-03-08T00:19:05;33.53;;;23.33;;
62832;SDS011;48891;49.220;6.920;2024-03-08T00:21:30;31.58;;;22.80;;
62832;SDS011;48891;49.220;6.920;2024-03-08T00:23:55;33.05;;;23.25;;
62832;SDS011;48891;49.220;6.920;2024-03-08T00:26:21;32.30;;;23.98;;
62832;SDS011;48891;49.220;6.920;2024-03-08T00:28:46;31.23;;;22.45;;
62832;SDS011;48891;49.220;6.920;2024-03-08T00:31:11;33.78;;;23.45;;
62832;SDS011;48891;49.220;6.920;2024-03-08T00:33:36;33.90;;;24.20;;
62832;SDS011;48891;49.220;6.920;2024-03-08T00:36:02;33.78;;;23.38;;
62832;SDS011;48891;49.220;6.920;2024-03-08T00:38:27;34.03;;;23.38;;
62832;SDS011;48891;49.220;6.920;2024-03-08T00:40:52;33.28;;;23.25;;
62832;SDS011;48891;49.220;6.920;2024-03-08T00:43:18;32.53;;;22.73;;
62832;SDS011;48891;49.220;6.920;2024-03-08T00:45:43;32.72;;;23.20;;
62832;SDS011;48891;49.220;6.920;2024-03-08T00:48:08;33.38;;;22.63;;
62832;SDS011;48891;49.220;6.920;2024-03-08T00:50:34;30.83;;;22.63;;
62832;SDS011;48891;49.220;6.920;2024-03-08T00:52:59;31.88;;;22.98;;
62832;SDS011;48891;49.220;6.920;2024-03-08T00:55:24;33.97;;;23.83;;
62832;SDS011;48891;49.220;6.920;2024-03-08T00:57:50;34.13;;;24.13;;
62832;SDS011;48891;49.220;6.920;2024-03-08T01:00:16;32.22;;;22.67;;
62832;SDS011;48891;49.220;6.920;2024-03-08T01:02:41;31.15;;;22.10;;
62832;SDS011;48891;49.220;6.920;2024-03-08T01:05:07;30.70;;;22.88;;
62832;SDS011;48891;49.220;6.920;2024-03-08T01:07:35;30.33;;;21.70;;
62832;SDS011;48891;49.220;6.920;2024-03-08T01:10:03;31.40;;;22.10;;
62832;SDS011;48891;49.220;6.920;2024-03-08T01:14:55;33.07;;;22.40;;
62832;SDS011;48891;49.220;6.920;2024-03-08T01:17:20;30.40;;;21.60;;
62832;SDS011;48891;49.220;6.920;2024-03-08T01:19:45;30.33;;;22.55;;
62832;SDS011;48891;49.220;6.920;2024-03-08T01:22:11;29.52;;;21.92;;
62832;SDS011;48891;49.220;6.920;2024-03-08T01:24:36;33.33;;;22.17;;
62832;SDS011;48891;49.220;6.920;2024-03-08T01:27:01;29.92;;;21.30;;
62832;SDS011;48891;49.220;6.920;2024-03-08T01:29:27;31.15;;;22.23;;
62832;SDS011;48891;49.220;6.920;2024-03-08T01:31:52;33.45;;;22.92;;
62832;SDS011;48891;49.220;6.920;2024-03-08T01:34:17;32.65;;;22.60;;
62832;SDS011;48891;49.220;6.920;2024-03-08T01:36:42;30.90;;;21.35;;
62832;SDS011;48891;49.220;6.920;2024-03-08T01:39:08;31.33;;;21.80;;
62832;SDS011;48891;49.220;6.920;2024-03-08T01:41:33;30.45;;;21.70;;
62832;SDS011;48891;49.220;6.920;2024-03-08T01:43:59;29.85;;;21.52;;
62832;SDS011;48891;49.220;6.920;2024-03-08T01:46:24;30.77;;;21.58;;
62832;SDS011;48891;49.220;6.920;2024-03-08T01:48:50;31.33;;;21.70;;
62832;SDS011;48891;49.220;6.920;2024-03-08T01:51:15;29.98;;;21.58;;
62832;SDS011;48891;49.220;6.920;2024-03-08T01:53:41;30.73;;;22.13;;
62832;SDS011;48891;49.220;6.920;2024-03-08T01:56:09;29.45;;;21.42;;
62832;SDS011;48891;49.220;6.920;2024-03-08T01:58:35;32.10;;;21.90;;
62832;SDS011;48891;49.220;6.920;2024-03-08T02:01:00;29.92;;;22.75;;
62832;SDS011;48891;49.220;6.920;2024-03-08T02:03:26;27.42;;;20.83;;
62832;SDS011;48891;49.220;6.920;2024-03-08T02:05:51;28.63;;;21.10;;
62832;SDS011;48891;49.220;6.920;2024-03-08T02:08:17;29.45;;;21.15;;
62832;SDS011;48891;49.220;6.920;2024-03-08T02:10:45;31.08;;;21.63;;
62832;SDS011;48891;49.220;6.920;2024-03-08T02:13:11;29.30;;;20.45;;
62832;SDS011;48891;49.220;6.920;2024-03-08T02:18:23;32.65;;;21.88;;
62832;SDS011;48891;49.220;6.920;2024-03-08T02:20:49;30.50;;;22.05;;
62832;SDS011;48891;49.220;6.920;2024-03-08T02:23:19;30.65;;;22.42;;
62832;SDS011;48891;49.220;6.920;2024-03-08T02:25:44;31.50;;;21.95;;
62832;SDS011;48891;49.220;6.920;2024-03-08T02:28:12;30.88;;;21.67;;
62832;SDS011;48891;49.220;6.920;2024-03-08T02:30:38;29.65;;;21.13;;
62832;SDS011;48891;49.220;6.920;2024-03-08T02:33:06;31.98;;;21.98;;
62832;SDS011;48891;49.220;6.920;2024-03-08T02:35:34;30.50;;;23.43;;
62832;SDS011;48891;49.220;6.920;2024-03-08T02:38:00;30.05;;;22.00;;
62832;SDS011;48891;49.220;6.920;2024-03-08T02:40:26;31.55;;;22.30;;
62832;SDS011;48891;49.220;6.920;2024-03-08T02:42:51;31.42;;;22.30;;
62832;SDS011;48891;49.220;6.920;2024-03-08T02:45:16;29.90;;;21.67;;
62832;SDS011;48891;49.220;6.920;2024-03-08T02:47:42;28.35;;;21.52;;
62832;SDS011;48891;49.220;6.920;2024-03-08T02:50:07;31.70;;;22.23;;
62832;SDS011;48891;49.220;6.920;2024-03-08T02:52:35;30.50;;;22.77;;
62832;SDS011;48891;49.220;6.920;2024-03-08T02:55:04;32.70;;;22.35;;
62832;SDS011;48891;49.220;6.920;2024-03-08T02:57:29;31.00;;;21.83;;
62832;SDS011;48891;49.220;6.920;2024-03-08T02:59:54;32.42;;;22.50;;
62832;SDS011;48891;49.220;6.920;2024-03-08T03:02:20;31.85;;;23.55;;
62832;SDS011;48891;49.220;6.920;2024-03-08T03:04:45;29.10;;;22.88;;
62832;SDS011;48891;49.220;6.920;2024-03-08T03:07:10;34.30;;;23.65;;
62832;SDS011;48891;49.220;6.920;2024-03-08T03:09:35;32.72;;;23.00;;
62832;SDS011;48891;49.220;6.920;2024-03-08T03:12:01;32.80;;;23.77;;
62832;SDS011;48891;49.220;6.920;2024-03-08T03:14:26;30.55;;;23.20;;
62832;SDS011;48891;49.220;6.920;2024-03-08T03:16:51;33.03;;;23.23;;
62832;SDS011;48891;49.220;6.920;2024-03-08T03:19:16;32.75;;;24.00;;
62832;SDS011;48891;49.220;6.920;2024-03-08T03:21:42;32.25;;;21.80;;
62832;SDS011;48891;49.220;6.920;2024-03-08T03:24:07;34.13;;;23.98;;
62832;SDS011;48891;49.220;6.920;2024-03-08T03:26:32;34.38;;;24.50;;
62832;SDS011;48891;49.220;6.920;2024-03-08T03:28:57;30.58;;;23.38;;
62832;SDS011;48891;49.220;6.920;2024-03-08T03:31:23;32.13;;;23.52;;
62832;SDS011;48891;49.220;6.920;2024-03-08T03:33:48;32.90;;;24.02;;
62832;SDS011;48891;49.220;6.920;2024-03-08T03:36:13;33.85;;;23.48;;
62832;SDS011;48891;49.220;6.920;2024-03-08T03:38:38;32.50;;;23.15;;
62832;SDS011;48891;49.220;6.920;2024-03-08T03:41:04;33.72;;;22.38;;
62832;SDS011;48891;49.220;6.920;2024-03-08T03:43:29;32.63;;;23.48;;
62832;SDS011;48891;49.220;6.920;2024-03-08T03:45:54;31.30;;;23.02;;
62832;SDS011;48891;49.220;6.920;2024-03-08T03:48:19;32.13;;;23.45;;
62832;SDS011;48891;49.220;6.920;2024-03-08T03:50:45;32.65;;;23.08;;
62832;SDS011;48891;49.220;6.920;2024-03-08T03:53:10;32.00;;;23.10;;
62832;SDS011;48891;49.220;6.920;2024-03-08T03:55:35;32.28;;;23.92;;
62832;SDS011;48891;49.220;6.920;2024-03-08T03:58:01;31.15;;;23.75;;
62832;SDS011;48891;49.220;6.920;2024-03-08T04:00:26;31.35;;;23.00;;
62832;SDS011;48891;49.220;6.920;2024-03-08T04:02:52;32.00;;;23.20;;
62832;SDS011;48891;49.220;6.920;2024-03-08T04:05:17;30.60;;;22.75;;
62832;SDS011;48891;49.220;6.920;2024-03-08T04:07:43;29.88;;;21.52;;
62832;SDS011;48891;49.220;6.920;2024-03-08T04:10:08;30.55;;;22.55;;
62832;SDS011;48891;49.220;6.920;2024-03-08T04:12:34;32.22;;;22.60;;
62832;SDS011;48891;49.220;6.920;2024-03-08T04:14:59;30.42;;;22.27;;
62832;SDS011;48891;49.220;6.920;2024-03-08T04:17:24;31.50;;;22.13;;
62832;SDS011;48891;49.220;6.920;2024-03-08T04:19:50;32.03;;;22.73;;
62832;SDS011;48891;49.220;6.920;2024-03-08T04:22:16;31.38;;;22.35;;
62832;SDS011;48891;49.220;6.920;2024-03-08T04:24:41;32.03;;;23.05;;
62832;SDS011;48891;49.220;6.920;2024-03-08T04:27:06;28.83;;;21.08;;
62832;SDS011;48891;49.220;6.920;2024-03-08T04:29:31;32.15;;;22.00;;
62832;SDS011;48891;49.220;6.920;2024-03-08T04:31:57;32.75;;;23.63;;
62832;SDS011;48891;49.220;6.920;2024-03-08T04:34:22;30.20;;;21.90;;
62832;SDS011;48891;49.220;6.920;2024-03-08T04:36:48;28.52;;;21.95;;
62832;SDS011;48891;49.220;6.920;2024-03-08T04:39:13;32.95;;;23.63;;
62832;SDS011;48891;49.220;6.920;2024-03-08T04:41:39;30.52;;;22.00;;
62832;SDS011;48891;49.220;6.920;2024-03-08T04:44:04;30.30;;;22.48;;
62832;SDS011;48891;49.220;6.920;2024-03-08T04:46:30;30.70;;;22.88;;
62832;SDS011;48891;49.220;6.920;2024-03-08T04:48:56;29.42;;;22.25;;
62832;SDS011;48891;49.220;6.920;2024-03-08T04:51:21;31.77;;;23.45;;
62832;SDS011;48891;49.220;6.920;2024-03-08T04:53:46;32.15;;;22.52;;
62832;SDS011;48891;49.220;6.920;2024-03-08T04:56:11;30.45;;;22.40;;
62832;SDS011;48891;49.220;6.920;2024-03-08T04:58:37;30.80;;;22.45;;
62832;SDS011;48891;49.220;6.920;2024-03-08T05:01:02;31.48;;;22.95;;
62832;SDS011;48891;49.220;6.920;2024-03-08T05:03:27;28.63;;;22.20;;
62832;SDS011;48891;49.220;6.920;2024-03-08T05:05:53;30.98;;;22.38;;
62832;SDS011;48891;49.220;6.920;2024-03-08T05:08:18;29.38;;;22.15;;
62832;SDS011;48891;49.220;6.920;2024-03-08T05:10:44;32.58;;;24.45;;
62832;SDS011;48891;49.220;6.920;2024-03-08T05:13:09;31.88;;;23.13;;
62832;SDS011;48891;49.220;6.920;2024-03-08T05:15:34;31.75;;;22.90;;
62832;SDS011;48891;49.220;6.920;2024-03-08T05:18:00;30.25;;;22.20;;
62832;SDS011;48891;49.220;6.920;2024-03-08T05:20:25;32.05;;;22.52;;
62832;SDS011;48891;49.220;6.920;2024-03-08T05:22:50;29.50;;;22.80;;
62832;SDS011;48891;49.220;6.920;2024-03-08T05:25:15;31.70;;;22.67;;
62832;SDS011;48891;49.220;6.920;2024-03-08T05:27:41;31.80;;;22.90;;
62832;SDS011;48891;49.220;6.920;2024-03-08T05:30:06;29.38;;;21.50;;
62832;SDS011;48891;49.220;6.920;2024-03-08T05:32:31;30.48;;;22.02;;
62832;SDS011;48891;49.220;6.920;2024-03-08T05:34:57;29.75;;;22.05;;
62832;SDS011;48891;49.220;6.920;2024-03-08T05:37:22;32.97;;;23.25;;
62832;SDS011;48891;49.220;6.920;2024-03-08T05:39:47;29.77;;;21.52;;
62832;SDS011;48891;49.220;6.920;2024-03-08T05:42:13;31.02;;;22.20;;
62832;SDS011;48891;49.220;6.920;2024-03-08T05:44:38;29.40;;;21.00;;
62832;SDS011;48891;49.220;6.920;2024-03-08T05:47:03;31.98;;;21.90;;
62832;SDS011;48891;49.220;6.920;2024-03-08T05:49:28;33.22;;;23.08;;
62832;SDS011;48891;49.220;6.920;2024-03-08T05:51:54;31.95;;;22.02;;
62832;SDS011;48891;49.220;6.920;2024-03-08T05:54:19;29.90;;;21.33;;
62832;SDS011;48891;49.220;6.920;2024-03-08T05:56:44;31.60;;;21.70;;
62832;SDS011;48891;49.220;6.920;2024-03-08T05:59:10;31.88;;;21.70;;
62832;SDS011;48891;49.220;6.920;2024-03-08T06:01:35;29.25;;;21.00;;
62832;SDS011;48891;49.220;6.920;2024-03-08T06:04:01;30.88;;;21.35;;
62832;SDS011;48891;49.220;6.920;2024-03-08T06:09:00;32.42;;;22.75;;
62832;SDS011;48891;49.220;6.920;2024-03-08T06:11:25;32.08;;;20.90;;
62832;SDS011;48891;49.220;6.920;2024-03-08T06:13:51;30.63;;;20.80;;
62832;SDS011;48891;49.220;6.920;2024-03-08T06:16:16;31.13;;;22.85;;
62832;SDS011;48891;49.220;6.920;2024-03-08T06:18:41;30.92;;;21.50;;
62832;SDS011;48891;49.220;6.920;2024-03-08T06:21:07;32.75;;;22.60;;
62832;SDS011;48891;49.220;6.920;2024-03-08T06:23:33;30.17;;;21.30;;
62832;SDS011;48891;49.220;6.920;2024-03-08T06:25:58;31.08;;;21.35;;
62832;SDS011;48891;49.220;6.920;2024-03-08T06:28:24;28.80;;;20.92;;
62832;SDS011;48891;49.220;6.920;2024-03-08T06:30:49;30.95;;;22.20;;
62832;SDS011;48891;49.220;6.920;2024-03-08T06:33:14;30.58;;;22.30;;
62832;SDS011;48891;49.220;6.920;2024-03-08T06:35:40;31.67;;;22.05;;
62832;SDS011;48891;49.220;6.920;2024-03-08T06:38:05;30.70;;;20.73;;
62832;SDS011;48891;49.220;6.920;2024-03-08T06:40:30;29.55;;;21.25;;
62832;SDS011;48891;49.220;6.920;2024-03-08T06:42:55;29.90;;;20.98;;
62832;SDS011;48891;49.220;6.920;2024-03-08T06:45:21;30.25;;;21.55;;
62832;SDS011;48891;49.220;6.920;2024-03-08T06:47:46;29.00;;;21.02;;
62832;SDS011;48891;49.220;6.920;2024-03-08T06:50:12;31.60;;;20.98;;
62832;SDS011;48891;49.220;6.920;2024-03-08T06:52:37;31.13;;;21.88;;
62832;SDS011;48891;49.220;6.920;2024-03-08T06:55:02;30.27;;;20.70;;
62832;SDS011;48891;49.220;6.920;2024-03-08T06:57:28;28.65;;;20.33;;
62832;SDS011;48891;49.220;6.920;2024-03-08T06:59:53;29.27;;;20.30;;
62832;SDS011;48891;49.220;6.920;2024-03-08T07:02:18;31.55;;;21.05;;
62832;SDS011;48891;49.220;6.920;2024-03-08T07:04:44;30.85;;;21.30;;
62832;SDS011;48891;49.220;6.920;2024-03-08T07:07:09;27.77;;;19.77;;
62832;SDS011;48891;49.220;6.920;2024-03-08T07:09:35;31.77;;;21.38;;
62832;SDS011;48891;49.220;6.920;2024-03-08T07:12:01;27.83;;;20.38;;
62832;SDS011;48891;49.220;6.920;2024-03-08T07:14:26;30.20;;;21.75;;
62832;SDS011;48891;49.220;6.920;2024-03-08T07:16:51;29.67;;;20.48;;
62832;SDS011;48891;49.220;6.920;2024-03-08T07:19:17;29.58;;;20.27;;
62832;SDS011;48891;49.220;6.920;2024-03-08T07:21:42;29.00;;;21.00;;
62832;SDS011;48891;49.220;6.920;2024-03-08T07:24:08;28.33;;;19.65;;
62832;SDS011;48891;49.220;6.920;2024-03-08T07:26:34;30.52;;;20.55;;
62832;SDS011;48891;49.220;6.920;2024-03-08T07:28:59;28.60;;;20.95;;
62832;SDS011;48891;49.220;6.920;2024-03-08T07:31:24;29.13;;;19.95;;
62832;SDS011;48891;49.220;6.920;2024-03-08T07:33:49;27.85;;;19.08;;
62832;SDS011;48891;49.220;6.920;2024-03-08T07:36:15;28.30;;;20.83;;
62832;SDS011;48891;49.220;6.920;2024-03-08T07:38:40;29.75;;;20.70;;
62832;SDS011;48891;49.220;6.920;2024-03-08T07:41:05;30.48;;;20.80;;
62832;SDS011;48891;49.220;6.920;2024-03-08T07:43:30;28.98;;;20.13;;
62832;SDS011;48891;49.220;6.920;2024-03-08T07:45:56;26.27;;;19.33;;
62832;SDS011;48891;49.220;6.920;2024-03-08T07:48:21;26.25;;;18.40;;
62832;SDS011;48891;49.220;6.920;2024-03-08T07:50:46;28.05;;;19.77;;
62832;SDS011;48891;49.220;6.920;2024-03-08T07:53:11;28.10;;;19.73;;
62832;SDS011;48891;49.220;6.920;2024-03-08T07:55:37;27.80;;;19.70;;
62832;SDS011;48891;49.220;6.920;2024-03-08T07:58:02;25.10;;;17.65;;
62832;SDS011;48891;49.220;6.920;2024-03-08T08:00:28;26.17;;;18.98;;
62832;SDS011;48891;49.220;6.920;2024-03-08T08:02:54;28.60;;;19.88;;
62832;SDS011;48891;49.220;6.920;2024-03-08T08:05:19;27.08;;;19.60;;
62832;SDS011;48891;49.220;6.920;2024-03-08T08:07:45;24.65;;;18.30;;
62832;SDS011;48891;49.220;6.920;2024-03-08T08:10:11;27.58;;;19.95;;
62832;SDS011;48891;49.220;6.920;2024-03-08T08:12:37;27.40;;;20.00;;
62832;SDS011;48891;49.220;6.920;2024-03-08T08:15:02;27.67;;;19.63;;
62832;SDS011;48891;49.220;6.920;2024-03-08T08:17:28;26.52;;;19.17;;
62832;SDS011;48891;49.220;6.920;2024-03-08T08:19:53;25.65;;;19.15;;
62832;SDS011;48891;49.220;6.920;2024-03-08T08:22:18;26.98;;;19.20;;
62832;SDS011;48891;49.220;6.920;2024-03-08T08:24:44;28.45;;;19.60;;
62832;SDS011;48891;49.220;6.920;2024-03-08T08:27:09;27.80;;;19.35;;
62832;SDS011;48891;49.220;6.920;2024-03-08T08:29:34;28.92;;;19.65;;
62832;SDS011;48891;49.220;6.920;2024-03-08T08:31:59;26.52;;;18.60;;
62832;SDS011;48891;49.220;6.920;2024-03-08T08:34:25;25.75;;;18.63;;
62832;SDS011;48891;49.220;6.920;2024-03-08T08:36:50;24.35;;;17.95;;
62832;SDS011;48891;49.220;6.920;2024-03-08T08:39:15;25.40;;;18.90;;
62832;SDS011;48891;49.220;6.920;2024-03-08T08:41:41;28.90;;;19.40;;
62832;SDS011;48891;49.220;6.920;2024-03-08T08:44:06;26.70;;;18.85;;
62832;SDS011;48891;49.220;6.920;2024-03-08T08:46:32;26.95;;;19.23;;
62832;SDS011;48891;49.220;6.920;2024-03-08T08:48:57;25.52;;;18.35;;
62832;SDS011;48891;49.220;6.920;2024-03-08T08:51:22;24.20;;;17.52;;
62832;SDS011;48891;49.220;6.920;2024-03-08T08:53:47;26.20;;;18.33;;
62832;SDS011;48891;49.220;6.920;2024-03-08T08:56:13;24.35;;;17.95;;
62832;SDS011;48891;49.220;6.920;2024-03-08T08:58:39;25.58;;;17.90;;
62832;SDS011;48891;49.220;6.920;2024-03-08T09:01:04;24.05;;;17.92;;
62832;SDS011;48891;49.220;6.920;2024-03-08T09:03:30;24.65;;;17.58;;
62832;SDS011;48891;49.220;6.920;2024-03-08T09:05:55;24.73;;;18.25;;
62832;SDS011;48891;49.220;6.920;2024-03-08T09:08:20;27.38;;;19.05;;
62832;SDS011;48891;49.220;6.920;2024-03-08T09:10:45;27.13;;;18.55;;
62832;SDS011;48891;49.220;6.920;2024-03-08T09:13:12;24.58;;;18.17;;
62832;SDS011;48891;49.220;6.920;2024-03-08T09:15:37;25.33;;;17.67;;
62832;SDS011;48891;49.220;6.920;2024-03-08T09:18:03;24.77;;;17.77;;
62832;SDS011;48891;49.220;6.920;2024-03-08T09:20:28;24.80;;;18.02;;
62832;SDS011;48891;49.220;6.920;2024-03-08T09:22:53;24.23;;;17.38;;
62832;SDS011;48891;49.220;6.920;2024-03-08T09:25:19;23.42;;;17.45;;
62832;SDS011;48891;49.220;6.920;2024-03-08T09:27:44;24.13;;;17.45;;
62832;SDS011;48891;49.220;6.920;2024-03-08T09:30:09;25.65;;;18.27;;
62832;SDS011;48891;49.220;6.920;2024-03-08T09:32:35;24.80;;;18.15;;
62832;SDS011;48891;49.220;6.920;2024-03-08T09:35:00;23.95;;;17.80;;
62832;SDS011;48891;49.220;6.920;2024-03-08T09:37:26;23.58;;;17.85;;
62832;SDS011;48891;49.220;6.920;2024-03-08T09:39:52;26.60;;;18.60;;
62832;SDS011;48891;49.220;6.920;2024-03-08T09:42:17;22.88;;;16.80;;
62832;SDS011;48891;49.220;6.920;2024-03-08T09:44:46;25.58;;;17.60;;
62832;SDS011;48891;49.220;6.920;2024-03-08T09:47:14;25.60;;;18.60;;
62832;SDS011;48891;49.220;6.920;2024-03-08T09:49:40;26.63;;;18.85;;
62832;SDS011;48891;49.220;6.920;2024-03-08T09:52:06;24.23;;;18.20;;
62832;SDS011;48891;49.220;6.920;2024-03-08T09:54:32;24.00;;;17.50;;
62832;SDS011;48891;49.220;6.920;2024-03-08T09:56:57;24.77;;;18.20;;
62832;SDS011;48891;49.220;6.920;2024-03-08T09:59:23;23.42;;;17.92;;
62832;SDS011;48891;49.220;6.920;2024-03-08T10:01:48;24.80;;;18.08;;
62832;SDS011;48891;49.220;6.920;2024-03-08T10:04:14;25.73;;;18.10;;
62832;SDS011;48891;49.220;6.920;2024-03-08T10:06:39;25.15;;;17.73;;
62832;SDS011;48891;49.220;6.920;2024-03-08T10:09:05;25.65;;;18.75;;
62832;SDS011;48891;49.220;6.920;2024-03-08T10:11:30;21.80;;;16.67;;
62832;SDS011;48891;49.220;6.920;2024-03-08T10:13:55;24.00;;;18.00;;
62832;SDS011;48891;49.220;6.920;2024-03-08T10:16:21;24.08;;;17.52;;
62832;SDS011;48891;49.220;6.920;2024-03-08T10:18:46;25.92;;;18.52;;
62832;SDS011;48891;49.220;6.920;2024-03-08T10:21:11;23.92;;;18.30;;
62832;SDS011;48891;49.220;6.920;2024-03-08T10:23:36;24.45;;;17.10;;
62832;SDS011;48891;49.220;6.920;2024-03-08T10:26:15;23.00;;;16.90;;
62832;SDS011;48891;49.220;6.920;2024-03-08T10:28:42;23.77;;;17.45;;
62832;SDS011;48891;49.220;6.920;2024-03-08T10:31:09;23.47;;;17.60;;
62832;SDS011;48891;49.220;6.920;2024-03-08T10:33:34;24.05;;;17.38;;
62832;SDS011;48891;49.220;6.920;2024-03-08T10:36:00;23.40;;;17.52;;
62832;SDS011;48891;49.220;6.920;2024-03-08T10:38:25;24.63;;;18.67;;
62832;SDS011;48891;49.220;6.920;2024-03-08T10:40:51;21.88;;;17.27;;
62832;SDS011;48891;49.220;6.920;2024-03-08T10:43:22;24.13;;;17.58;;
62832;SDS011;48891;49.220;6.920;2024-03-08T10:45:49;22.08;;;16.95;;
62832;SDS011;48891;49.220;6.920;2024-03-08T10:48:26;21.10;;;16.90;;
62832;SDS011;48891;49.220;6.920;2024-03-08T10:50:56;24.63;;;18.40;;
62832;SDS011;48891;49.220;6.920;2024-03-08T10:53:22;26.48;;;19.50;;
62832;SDS011;48891;49.220;6.920;2024-03-08T10:55:49;25.13;;;18.08;;
62832;SDS011;48891;49.220;6.920;2024-03-08T10:58:15;22.88;;;17.13;;
62832;SDS011;48891;49.220;6.920;2024-03-08T11:00:41;22.48;;;17.05;;
62832;SDS011;48891;49.220;6.920;2024-03-08T11:03:07;23.13;;;16.88;;
62832;SDS011;48891;49.220;6.920;2024-03-08T11:05:38;23.90;;;17.50;;
62832;SDS011;48891;49.220;6.920;2024-03-08T11:08:06;23.08;;;16.77;;
62832;SDS011;48891;49.220;6.920;2024-03-08T11:13:48;23.25;;;17.50;;
62832;SDS011;48891;49.220;6.920;2024-03-08T11:18:54;24.63;;;16.77;;
62832;SDS011;48891;49.220;6.920;2024-03-08T11:21:19;23.13;;;17.30;;
62832;SDS011;48891;49.220;6.920;2024-03-08T11:23:58;23.58;;;17.48;;
62832;SDS011;48891;49.220;6.920;2024-03-08T11:26:24;22.65;;;17.33;;
62832;SDS011;48891;49.220;6.920;2024-03-08T11:28:50;23.90;;;17.00;;
62832;SDS011;48891;49.220;6.920;2024-03-08T11:31:22;24.65;;;17.17;;
62832;SDS011;48891;49.220;6.920;2024-03-08T11:33:48;24.30;;;17.15;;
62832;SDS011;48891;49.220;6.920;2024-03-08T11:36:19;22.23;;;16.65;;
62832;SDS011;48891;49.220;6.920;2024-03-08T11:38:46;21.00;;;16.60;;
62832;SDS011;48891;49.220;6.920;2024-03-08T11:41:11;21.05;;;16.23;;
62832;SDS011;48891;49.220;6.920;2024-03-08T11:43:36;23.60;;;16.88;;
62832;SDS011;48891;49.220;6.920;2024-03-08T11:46:08;23.00;;;16.80;;
62832;SDS011;48891;49.220;6.920;2024-03-08T11:48:34;23.50;;;17.02;;
62832;SDS011;48891;49.220;6.920;2024-03-08T11:51:00;21.70;;;17.52;;
62832;SDS011;48891;49.220;6.920;2024-03-08T11:53:26;23.48;;;17.23;;
62832;SDS011;48891;49.220;6.920;2024-03-08T11:55:51;22.17;;;16.65;;
62832;SDS011;48891;49.220;6.920;2024-03-08T11:58:16;24.38;;;17.98;;
62832;SDS011;48891;49.220;6.920;2024-03-08T12:00:42;22.38;;;16.65;;
62832;SDS011;48891;49.220;6.920;2024-03-08T12:03:07;21.70;;;16.10;;
62832;SDS011;48891;49.220;6.920;2024-03-08T12:05:33;21.70;;;16.75;;
62832;SDS011;48891;49.220;6.920;2024-03-08T12:07:59;23.38;;;17.58;;
62832;SDS011;48891;49.220;6.920;2024-03-08T12:10:25;23.75;;;17.15;;
62832;SDS011;48891;49.220;6.920;2024-03-08T12:12:54;25.98;;;18.13;;
62832;SDS011;48891;49.220;6.920;2024-03-08T12:15:23;21.75;;;17.35;;
62832;SDS011;48891;49.220;6.920;2024-03-08T12:17:50;24.02;;;17.10;;
62832;SDS011;48891;49.220;6.920;2024-03-08T12:20:23;22.15;;;17.17;;
62832;SDS011;48891;49.220;6.920;2024-03-08T12:22:50;22.80;;;17.67;;
62832;SDS011;48891;49.220;6.920;2024-03-08T12:25:16;22.90;;;17.83;;
62832;SDS011;48891;49.220;6.920;2024-03-08T12:27:41;26.13;;;18.60;;
62832;SDS011;48891;49.220;6.920;2024-03-08T12:30:15;23.40;;;17.83;;
62832;SDS011;48891;49.220;6.920;2024-03-08T12:32:46;23.42;;;17.88;;
62832;SDS011;48891;49.220;6.920;2024-03-08T12:35:15;25.75;;;17.98;;
62832;SDS011;48891;49.220;6.920;2024-03-08T12:37:41;21.80;;;17.33;;
62832;SDS011;48891;49.220;6.920;2024-03-08T12:40:07;23.63;;;17.98;;
62832;SDS011;48891;49.220;6.920;2024-03-08T12:42:34;23.60;;;18.08;;
62832;SDS011;48891;49.220;6.920;2024-03-08T12:44:59;23.77;;;17.90;;
62832;SDS011;48891;49.220;6.920;2024-03-08T12:47:24;24.40;;;18.05;;
62832;SDS011;48891;49.220;6.920;2024-03-08T12:49:49;23.77;;;17.77;;
62832;SDS011;48891;49.220;6.920;2024-03-08T12:52:14;26.73;;;18.50;;
62832;SDS011;48891;49.220;6.920;2024-03-08T12:54:40;24.92;;;18.90;;
62832;SDS011;48891;49.220;6.920;2024-03-08T12:57:05;24.58;;;18.73;;
62832;SDS011;48891;49.220;6.920;2024-03-08T12:59:30;23.27;;;18.20;;
62832;SDS011;48891;49.220;6.920;2024-03-08T13:01:56;23.77;;;18.48;;
62832;SDS011;48891;49.220;6.920;2024-03-08T13:04:21;22.52;;;18.10;;
62832;SDS011;48891;49.220;6.920;2024-03-08T13:06:46;23.70;;;18.60;;
62832;SDS011;48891;49.220;6.920;2024-03-08T13:09:12;25.40;;;18.33;;
62832;SDS011;48891;49.220;6.920;2024-03-08T13:11:37;23.77;;;18.20;;
62832;SDS011;48891;49.220;6.920;2024-03-08T13:14:03;24.13;;;18.75;;
62832;SDS011;48891;49.220;6.920;2024-03-08T13:16:29;24.25;;;18.52;;
62832;SDS011;48891;49.220;6.920;2024-03-08T13:18:54;24.83;;;19.58;;
62832;SDS011;48891;49.220;6.920;2024-03-08T13:21:19;24.98;;;19.20;;
62832;SDS011;48891;49.220;6.920;2024-03-08T13:23:45;24.63;;;18.95;;
62832;SDS011;48891;49.220;6.920;2024-03-08T13:26:10;26.63;;;19.52;;
62832;SDS011;48891;49.220;6.920;2024-03-08T13:28:36;24.02;;;19.13;;
62832;SDS011;48891;49.220;6.920;2024-03-08T13:31:03;24.15;;;18.23;;
62832;SDS011;48891;49.220;6.920;2024-03-08T13:33:31;25.27;;;19.98;;
62832;SDS011;48891;49.220;6.920;2024-03-08T13:35:56;24.65;;;18.95;;
62832;SDS011;48891;49.220;6.920;2024-03-08T13:38:22;24.35;;;18.75;;
62832;SDS011;48891;49.220;6.920;2024-03-08T13:40:47;25.20;;;19.33;;
62832;SDS011;48891;49.220;6.920;2024-03-08T13:43:12;24.25;;;18.48;;
62832;SDS011;48891;49.220;6.920;2024-03-08T13:45:38;25.67;;;20.60;;
62832;SDS011;48891;49.220;6.920;2024-03-08T13:48:03;25.30;;;18.73;;
62832;SDS011;48891;49.220;6.920;2024-03-08T13:50:29;24.80;;;18.77;;
62832;SDS011;48891;49.220;6.920;2024-03-08T13:52:54;25.47;;;18.53;;
62832;SDS011;48891;49.220;6.920;2024-03-08T13:55:20;25.98;;;19.55;;
62832;SDS011;48891;49.220;6.920;2024-03-08T13:57:47;25.38;;;18.98;;
62832;SDS011;48891;49.220;6.920;2024-03-08T14:00:13;25.02;;;19.27;;
62832;SDS011;48891;49.220;6.920;2024-03-08T14:02:38;24.95;;;18.85;;
62832;SDS011;48891;49.220;6.920;2024-03-08T14:05:04;27.47;;;19.53;;
62832;SDS011;48891;49.220;6.920;2024-03-08T14:07:29;26.02;;;19.25;;
62832;SDS011;48891;49.220;6.920;2024-03-08T14:09:54;23.73;;;18.80;;
62832;SDS011;48891;49.220;6.920;2024-03-08T14:12:20;26.58;;;20.33;;
62832;SDS011;48891;49.220;6.920;2024-03-08T14:14:45;23.50;;;20.05;;
62832;SDS011;48891;49.220;6.920;2024-03-08T14:17:10;24.42;;;18.60;;
62832;SDS011;48891;49.220;6.920;2024-03-08T14:19:36;24.25;;;19.42;;
62832;SDS011;48891;49.220;6.920;2024-03-08T14:22:04;25.13;;;20.40;;
62832;SDS011;48891;49.220;6.920;2024-03-08T14:24:30;23.85;;;20.17;;
62832;SDS011;48891;49.220;6.920;2024-03-08T14:26:55;23.73;;;20.70;;